sensor_id;sensor_type;location;lat;lon;timestamp;P1;durP1;ratioP1;P2;durP2;ratioP2
76714;SDS011;65644;44.990;20.288;2023-12-20T00:01:50;81.77;;;60.27;;
76714;SDS011;65644;44.990;20.288;2023-12-20T00:04:16;86.70;;;60.23;;
76714;SDS011;65644;44.990;20.288;2023-12-20T00:06:42;79.57;;;58.87;;
76714;SDS011;65644;44.990;20.288;2023-12-20T00:09:09;82.33;;;57.00;;
76714;SDS011;65644;44.990;20.288;2023-12-20T00:11:35;85.80;;;59.90;;
76714;SDS011;65644;44.990;20.288;2023-12-20T00:14:01;82.10;;;58.57;;
76714;SDS011;65644;44.990;20.288;2023-12-20T00:16:27;81.83;;;58.90;;
76714;SDS011;65644;44.990;20.288;2023-12-20T00:18:53;76.27;;;56.90;;
76714;SDS011;65644;44.990;20.288;2023-12-20T00:21:19;76.23;;;54.73;;
76714;SDS011;65644;44.990;20.288;2023-12-20T00:23:45;76.53;;;54.40;;
76714;SDS011;65644;44.990;20.288;2023-12-20T00:26:11;82.10;;;57.20;;
76714;SDS011;65644;44.990;20.288;2023-12-20T00:28:37;78.77;;;57.13;;
76714;SDS011;65644;44.990;20.288;2023-12-20T00:31:03;80.40;;;56.83;;
76714;SDS011;65644;44.990;20.288;2023-12-20T00:33:29;80.40;;;55.43;;
76714;SDS011;65644;44.990;20.288;2023-12-20T00:35:56;84.13;;;59.20;;
76714;SDS011;65644;44.990;20.288;2023-12-20T00:38:22;78.13;;;57.03;;
76714;SDS011;65644;44.990;20.288;2023-12-20T00:40:48;75.80;;;55.37;;
76714;SDS011;65644;44.990;20.288;2023-12-20T00:43:14;82.10;;;55.77;;
76714;SDS011;65644;44.990;20.288;2023-12-20T00:45:41;76.33;;;55.97;;
76714;SDS011;65644;44.990;20.288;2023-12-20T00:48:07;77.97;;;56.87;;
76714;SDS011;65644;44.990;20.288;2023-12-20T00:50:33;80.20;;;56.60;;
76714;SDS011;65644;44.990;20.288;2023-12-20T00:52:59;81.17;;;57.83;;
76714;SDS011;65644;44.990;20.288;2023-12-20T00:55:25;76.83;;;57.00;;
76714;SDS011;65644;44.990;20.288;2023-12-20T00:57:51;77.37;;;58.03;;
76714;SDS011;65644;44.990;20.288;2023-12-20T01:00:18;80.47;;;57.47;;
76714;SDS011;65644;44.990;20.288;2023-12-20T01:02:44;81.83;;;59.30;;
76714;SDS011;65644;44.990;20.288;2023-12-20T01:05:14;80.30;;;57.60;;
76714;SDS011;65644;44.990;20.288;2023-12-20T01:07:40;87.60;;;60.07;;
76714;SDS011;65644;44.990;20.288;2023-12-20T01:10:06;78.50;;;58.10;;
76714;SDS011;65644;44.990;20.288;2023-12-20T01:12:32;84.47;;;59.00;;
76714;SDS011;65644;44.990;20.288;2023-12-20T01:14:58;80.50;;;57.53;;
76714;SDS011;65644;44.990;20.288;2023-12-20T01:17:24;79.80;;;59.07;;
76714;SDS011;65644;44.990;20.288;2023-12-20T01:19:50;79.87;;;58.33;;
76714;SDS011;65644;44.990;20.288;2023-12-20T01:22:16;85.93;;;58.03;;
76714;SDS011;65644;44.990;20.288;2023-12-20T01:24:42;81.60;;;58.83;;
76714;SDS011;65644;44.990;20.288;2023-12-20T01:27:09;89.23;;;61.40;;
76714;SDS011;65644;44.990;20.288;2023-12-20T01:29:35;83.87;;;60.27;;
76714;SDS011;65644;44.990;20.288;2023-12-20T01:32:01;85.70;;;59.33;;
76714;SDS011;65644;44.990;20.288;2023-12-20T01:34:27;82.23;;;60.90;;
76714;SDS011;65644;44.990;20.288;2023-12-20T01:36:53;84.13;;;60.60;;
76714;SDS011;65644;44.990;20.288;2023-12-20T01:39:22;87.37;;;61.30;;
76714;SDS011;65644;44.990;20.288;2023-12-20T01:41:48;83.50;;;61.53;;
76714;SDS011;65644;44.990;20.288;2023-12-20T01:44:14;80.53;;;60.53;;
76714;SDS011;65644;44.990;20.288;2023-12-20T01:46:40;84.83;;;61.73;;
76714;SDS011;65644;44.990;20.288;2023-12-20T01:49:06;85.53;;;61.77;;
76714;SDS011;65644;44.990;20.288;2023-12-20T01:51:33;87.47;;;62.43;;
76714;SDS011;65644;44.990;20.288;2023-12-20T01:53:59;85.83;;;61.77;;
76714;SDS011;65644;44.990;20.288;2023-12-20T01:56:26;80.97;;;60.00;;
76714;SDS011;65644;44.990;20.288;2023-12-20T01:58:53;80.30;;;57.37;;
76714;SDS011;65644;44.990;20.288;2023-12-20T02:01:19;85.20;;;59.47;;
76714;SDS011;65644;44.990;20.288;2023-12-20T02:03:45;82.30;;;60.10;;
76714;SDS011;65644;44.990;20.288;2023-12-20T02:06:11;80.73;;;59.13;;
76714;SDS011;65644;44.990;20.288;2023-12-20T02:08:37;82.77;;;58.67;;
76714;SDS011;65644;44.990;20.288;2023-12-20T02:11:03;84.43;;;59.73;;
76714;SDS011;65644;44.990;20.288;2023-12-20T02:13:30;88.47;;;58.63;;
76714;SDS011;65644;44.990;20.288;2023-12-20T02:15:56;80.13;;;57.60;;
76714;SDS011;65644;44.990;20.288;2023-12-20T02:18:22;78.60;;;57.47;;
76714;SDS011;65644;44.990;20.288;2023-12-20T02:20:49;81.30;;;57.77;;
76714;SDS011;65644;44.990;20.288;2023-12-20T02:23:15;82.57;;;57.80;;
76714;SDS011;65644;44.990;20.288;2023-12-20T02:25:41;79.57;;;55.70;;
76714;SDS011;65644;44.990;20.288;2023-12-20T02:28:07;85.30;;;58.13;;
76714;SDS011;65644;44.990;20.288;2023-12-20T02:30:33;78.33;;;55.97;;
76714;SDS011;65644;44.990;20.288;2023-12-20T02:33:00;84.77;;;58.10;;
76714;SDS011;65644;44.990;20.288;2023-12-20T02:35:27;78.60;;;54.97;;
76714;SDS011;65644;44.990;20.288;2023-12-20T02:37:53;77.83;;;54.93;;
76714;SDS011;65644;44.990;20.288;2023-12-20T02:40:19;77.37;;;53.77;;
76714;SDS011;65644;44.990;20.288;2023-12-20T02:42:45;81.00;;;55.33;;
76714;SDS011;65644;44.990;20.288;2023-12-20T02:45:11;80.57;;;57.87;;
76714;SDS011;65644;44.990;20.288;2023-12-20T02:47:37;82.27;;;57.30;;
76714;SDS011;65644;44.990;20.288;2023-12-20T02:50:03;80.37;;;57.37;;
76714;SDS011;65644;44.990;20.288;2023-12-20T02:52:29;79.17;;;57.60;;
76714;SDS011;65644;44.990;20.288;2023-12-20T02:54:55;80.37;;;58.53;;
76714;SDS011;65644;44.990;20.288;2023-12-20T02:57:21;83.40;;;55.83;;
76714;SDS011;65644;44.990;20.288;2023-12-20T02:59:47;78.87;;;59.03;;
76714;SDS011;65644;44.990;20.288;2023-12-20T03:02:13;78.07;;;57.10;;
76714;SDS011;65644;44.990;20.288;2023-12-20T03:04:40;75.73;;;57.23;;
76714;SDS011;65644;44.990;20.288;2023-12-20T03:07:06;80.73;;;56.83;;
76714;SDS011;65644;44.990;20.288;2023-12-20T03:09:32;81.47;;;57.57;;
76714;SDS011;65644;44.990;20.288;2023-12-20T03:11:58;79.43;;;56.20;;
76714;SDS011;65644;44.990;20.288;2023-12-20T03:14:24;78.27;;;56.30;;
76714;SDS011;65644;44.990;20.288;2023-12-20T03:16:50;79.00;;;57.07;;
76714;SDS011;65644;44.990;20.288;2023-12-20T03:19:17;86.40;;;59.77;;
76714;SDS011;65644;44.990;20.288;2023-12-20T03:21:44;79.57;;;58.40;;
76714;SDS011;65644;44.990;20.288;2023-12-20T03:24:10;81.27;;;57.47;;
76714;SDS011;65644;44.990;20.288;2023-12-20T03:26:36;77.83;;;58.43;;
76714;SDS011;65644;44.990;20.288;2023-12-20T03:29:02;80.97;;;57.43;;
76714;SDS011;65644;44.990;20.288;2023-12-20T03:31:29;92.77;;;64.77;;
76714;SDS011;65644;44.990;20.288;2023-12-20T03:33:55;86.77;;;59.60;;
76714;SDS011;65644;44.990;20.288;2023-12-20T03:36:21;84.30;;;61.00;;
76714;SDS011;65644;44.990;20.288;2023-12-20T03:38:47;86.27;;;61.97;;
76714;SDS011;65644;44.990;20.288;2023-12-20T03:41:13;84.57;;;60.93;;
76714;SDS011;65644;44.990;20.288;2023-12-20T03:43:39;84.93;;;59.63;;
76714;SDS011;65644;44.990;20.288;2023-12-20T03:46:07;87.40;;;61.80;;
76714;SDS011;65644;44.990;20.288;2023-12-20T03:48:33;87.97;;;60.07;;
76714;SDS011;65644;44.990;20.288;2023-12-20T03:50:59;92.73;;;61.10;;
76714;SDS011;65644;44.990;20.288;2023-12-20T03:53:25;78.33;;;58.07;;
76714;SDS011;65644;44.990;20.288;2023-12-20T03:55:51;82.23;;;56.47;;
76714;SDS011;65644;44.990;20.288;2023-12-20T03:58:18;81.77;;;56.23;;
76714;SDS011;65644;44.990;20.288;2023-12-20T04:00:44;84.00;;;57.07;;
76714;SDS011;65644;44.990;20.288;2023-12-20T04:03:10;83.00;;;60.63;;
76714;SDS011;65644;44.990;20.288;2023-12-20T04:05:39;77.10;;;55.97;;
76714;SDS011;65644;44.990;20.288;2023-12-20T04:08:05;90.63;;;66.40;;
76714;SDS011;65644;44.990;20.288;2023-12-20T04:10:31;83.23;;;57.93;;
76714;SDS011;65644;44.990;20.288;2023-12-20T04:12:57;80.17;;;57.27;;
76714;SDS011;65644;44.990;20.288;2023-12-20T04:15:23;82.70;;;55.20;;
76714;SDS011;65644;44.990;20.288;2023-12-20T04:17:49;81.70;;;54.37;;
76714;SDS011;65644;44.990;20.288;2023-12-20T04:20:15;75.70;;;54.03;;
76714;SDS011;65644;44.990;20.288;2023-12-20T04:22:41;78.40;;;54.80;;
76714;SDS011;65644;44.990;20.288;2023-12-20T04:25:08;119.00;;;79.97;;
76714;SDS011;65644;44.990;20.288;2023-12-20T04:27:34;160.70;;;101.93;;
76714;SDS011;65644;44.990;20.288;2023-12-20T04:30:00;85.30;;;62.80;;
76714;SDS011;65644;44.990;20.288;2023-12-20T04:32:26;76.03;;;54.37;;
76714;SDS011;65644;44.990;20.288;2023-12-20T04:34:52;78.07;;;53.40;;
76714;SDS011;65644;44.990;20.288;2023-12-20T04:37:18;75.40;;;53.40;;
76714;SDS011;65644;44.990;20.288;2023-12-20T04:39:45;80.90;;;56.93;;
76714;SDS011;65644;44.990;20.288;2023-12-20T04:42:11;83.80;;;58.53;;
76714;SDS011;65644;44.990;20.288;2023-12-20T04:44:37;77.17;;;57.43;;
76714;SDS011;65644;44.990;20.288;2023-12-20T04:47:03;79.17;;;55.57;;
76714;SDS011;65644;44.990;20.288;2023-12-20T04:49:29;83.03;;;59.97;;
76714;SDS011;65644;44.990;20.288;2023-12-20T04:51:55;84.30;;;59.90;;
76714;SDS011;65644;44.990;20.288;2023-12-20T04:54:21;81.83;;;58.90;;
76714;SDS011;65644;44.990;20.288;2023-12-20T04:56:47;81.20;;;58.73;;
76714;SDS011;65644;44.990;20.288;2023-12-20T04:59:13;75.27;;;54.67;;
76714;SDS011;65644;44.990;20.288;2023-12-20T05:01:40;74.13;;;52.83;;
76714;SDS011;65644;44.990;20.288;2023-12-20T05:04:06;74.70;;;54.00;;
76714;SDS011;65644;44.990;20.288;2023-12-20T05:06:32;75.73;;;56.03;;
76714;SDS011;65644;44.990;20.288;2023-12-20T05:08:58;79.40;;;56.37;;
76714;SDS011;65644;44.990;20.288;2023-12-20T05:11:24;82.33;;;59.90;;
76714;SDS011;65644;44.990;20.288;2023-12-20T05:13:51;78.07;;;57.47;;
76714;SDS011;65644;44.990;20.288;2023-12-20T05:16:17;85.23;;;59.13;;
76714;SDS011;65644;44.990;20.288;2023-12-20T05:18:43;89.77;;;64.87;;
76714;SDS011;65644;44.990;20.288;2023-12-20T05:21:09;80.60;;;58.80;;
76714;SDS011;65644;44.990;20.288;2023-12-20T05:23:35;82.23;;;59.37;;
76714;SDS011;65644;44.990;20.288;2023-12-20T05:26:01;86.93;;;60.47;;
76714;SDS011;65644;44.990;20.288;2023-12-20T05:28:27;81.50;;;57.40;;
76714;SDS011;65644;44.990;20.288;2023-12-20T05:30:53;80.57;;;57.80;;
76714;SDS011;65644;44.990;20.288;2023-12-20T05:33:19;82.50;;;56.83;;
76714;SDS011;65644;44.990;20.288;2023-12-20T05:35:46;82.63;;;57.63;;
76714;SDS011;65644;44.990;20.288;2023-12-20T05:38:12;80.60;;;58.80;;
76714;SDS011;65644;44.990;20.288;2023-12-20T05:40:38;81.90;;;58.30;;
76714;SDS011;65644;44.990;20.288;2023-12-20T05:43:04;82.53;;;58.03;;
76714;SDS011;65644;44.990;20.288;2023-12-20T05:45:30;84.90;;;58.47;;
76714;SDS011;65644;44.990;20.288;2023-12-20T05:47:56;80.03;;;57.87;;
76714;SDS011;65644;44.990;20.288;2023-12-20T05:50:23;80.63;;;59.77;;
76714;SDS011;65644;44.990;20.288;2023-12-20T05:52:50;80.37;;;58.90;;
76714;SDS011;65644;44.990;20.288;2023-12-20T05:55:16;80.87;;;59.53;;
76714;SDS011;65644;44.990;20.288;2023-12-20T05:57:42;81.67;;;59.87;;
76714;SDS011;65644;44.990;20.288;2023-12-20T06:00:08;79.20;;;57.73;;
76714;SDS011;65644;44.990;20.288;2023-12-20T06:02:35;81.13;;;58.60;;
76714;SDS011;65644;44.990;20.288;2023-12-20T06:05:02;76.60;;;56.87;;
76714;SDS011;65644;44.990;20.288;2023-12-20T06:07:28;78.53;;;57.17;;
76714;SDS011;65644;44.990;20.288;2023-12-20T06:09:54;78.40;;;58.10;;
76714;SDS011;65644;44.990;20.288;2023-12-20T06:12:20;80.17;;;56.20;;
76714;SDS011;65644;44.990;20.288;2023-12-20T06:14:46;78.77;;;59.27;;
76714;SDS011;65644;44.990;20.288;2023-12-20T06:17:12;80.63;;;59.03;;
76714;SDS011;65644;44.990;20.288;2023-12-20T06:19:38;81.10;;;57.33;;
76714;SDS011;65644;44.990;20.288;2023-12-20T06:22:05;76.73;;;58.33;;
76714;SDS011;65644;44.990;20.288;2023-12-20T06:24:31;82.07;;;59.53;;
76714;SDS011;65644;44.990;20.288;2023-12-20T06:26:59;85.17;;;60.80;;
76714;SDS011;65644;44.990;20.288;2023-12-20T06:29:25;79.40;;;60.00;;
76714;SDS011;65644;44.990;20.288;2023-12-20T06:31:51;82.73;;;59.23;;
76714;SDS011;65644;44.990;20.288;2023-12-20T06:34:17;78.67;;;60.03;;
76714;SDS011;65644;44.990;20.288;2023-12-20T06:36:43;85.63;;;61.03;;
76714;SDS011;65644;44.990;20.288;2023-12-20T06:39:09;87.53;;;62.43;;
76714;SDS011;65644;44.990;20.288;2023-12-20T06:41:37;86.53;;;63.20;;
76714;SDS011;65644;44.990;20.288;2023-12-20T06:44:03;85.07;;;61.47;;
76714;SDS011;65644;44.990;20.288;2023-12-20T06:46:29;84.33;;;61.50;;
76714;SDS011;65644;44.990;20.288;2023-12-20T06:48:55;87.90;;;63.20;;
76714;SDS011;65644;44.990;20.288;2023-12-20T06:51:21;91.47;;;63.63;;
76714;SDS011;65644;44.990;20.288;2023-12-20T06:53:50;106.97;;;76.60;;
76714;SDS011;65644;44.990;20.288;2023-12-20T06:56:16;123.10;;;87.03;;
76714;SDS011;65644;44.990;20.288;2023-12-20T06:58:42;93.63;;;66.47;;
76714;SDS011;65644;44.990;20.288;2023-12-20T07:01:12;97.83;;;70.97;;
76714;SDS011;65644;44.990;20.288;2023-12-20T07:03:38;144.83;;;98.97;;
76714;SDS011;65644;44.990;20.288;2023-12-20T07:06:05;108.20;;;76.53;;
76714;SDS011;65644;44.990;20.288;2023-12-20T07:08:31;91.40;;;66.80;;
76714;SDS011;65644;44.990;20.288;2023-12-20T07:10:57;92.67;;;68.63;;
76714;SDS011;65644;44.990;20.288;2023-12-20T07:13:23;96.37;;;70.17;;
76714;SDS011;65644;44.990;20.288;2023-12-20T07:15:50;89.00;;;66.30;;
76714;SDS011;65644;44.990;20.288;2023-12-20T07:18:16;89.93;;;62.73;;
76714;SDS011;65644;44.990;20.288;2023-12-20T07:20:42;83.70;;;59.63;;
76714;SDS011;65644;44.990;20.288;2023-12-20T07:23:08;88.77;;;64.60;;
76714;SDS011;65644;44.990;20.288;2023-12-20T07:25:34;107.13;;;79.83;;
76714;SDS011;65644;44.990;20.288;2023-12-20T07:28:00;115.00;;;85.80;;
76714;SDS011;65644;44.990;20.288;2023-12-20T07:30:26;110.00;;;79.80;;
76714;SDS011;65644;44.990;20.288;2023-12-20T07:32:53;113.30;;;79.57;;
76714;SDS011;65644;44.990;20.288;2023-12-20T07:35:19;115.90;;;79.53;;
76714;SDS011;65644;44.990;20.288;2023-12-20T07:37:45;115.27;;;76.70;;
76714;SDS011;65644;44.990;20.288;2023-12-20T07:40:11;114.20;;;77.17;;
76714;SDS011;65644;44.990;20.288;2023-12-20T07:42:37;103.83;;;72.90;;
76714;SDS011;65644;44.990;20.288;2023-12-20T07:45:04;97.90;;;70.07;;
76714;SDS011;65644;44.990;20.288;2023-12-20T07:47:30;101.53;;;69.27;;
76714;SDS011;65644;44.990;20.288;2023-12-20T07:49:56;90.87;;;65.23;;
76714;SDS011;65644;44.990;20.288;2023-12-20T07:52:22;86.97;;;62.43;;
76714;SDS011;65644;44.990;20.288;2023-12-20T07:54:48;91.30;;;66.50;;
76714;SDS011;65644;44.990;20.288;2023-12-20T07:57:14;100.40;;;69.63;;
76714;SDS011;65644;44.990;20.288;2023-12-20T07:59:41;101.60;;;69.60;;
76714;SDS011;65644;44.990;20.288;2023-12-20T08:02:07;108.87;;;74.40;;
76714;SDS011;65644;44.990;20.288;2023-12-20T08:04:33;99.97;;;72.97;;
76714;SDS011;65644;44.990;20.288;2023-12-20T08:06:59;101.43;;;70.67;;
76714;SDS011;65644;44.990;20.288;2023-12-20T08:09:25;103.33;;;72.20;;
76714;SDS011;65644;44.990;20.288;2023-12-20T08:11:52;96.33;;;69.17;;
76714;SDS011;65644;44.990;20.288;2023-12-20T08:14:18;97.70;;;70.03;;
76714;SDS011;65644;44.990;20.288;2023-12-20T08:16:44;99.23;;;70.23;;
76714;SDS011;65644;44.990;20.288;2023-12-20T08:19:10;132.13;;;89.93;;
76714;SDS011;65644;44.990;20.288;2023-12-20T08:21:36;109.23;;;76.43;;
76714;SDS011;65644;44.990;20.288;2023-12-20T08:24:02;115.17;;;80.30;;
76714;SDS011;65644;44.990;20.288;2023-12-20T08:26:28;164.37;;;102.80;;
76714;SDS011;65644;44.990;20.288;2023-12-20T08:28:54;213.47;;;129.37;;
76714;SDS011;65644;44.990;20.288;2023-12-20T08:31:20;146.17;;;95.40;;
76714;SDS011;65644;44.990;20.288;2023-12-20T08:33:47;128.27;;;90.67;;
76714;SDS011;65644;44.990;20.288;2023-12-20T08:36:13;130.07;;;88.80;;
76714;SDS011;65644;44.990;20.288;2023-12-20T08:38:40;125.77;;;86.70;;
76714;SDS011;65644;44.990;20.288;2023-12-20T08:41:06;136.27;;;97.83;;
76714;SDS011;65644;44.990;20.288;2023-12-20T08:43:33;135.73;;;98.20;;
76714;SDS011;65644;44.990;20.288;2023-12-20T08:46:00;152.47;;;100.97;;
76714;SDS011;65644;44.990;20.288;2023-12-20T08:48:26;147.37;;;97.00;;
76714;SDS011;65644;44.990;20.288;2023-12-20T08:50:52;142.47;;;98.50;;
76714;SDS011;65644;44.990;20.288;2023-12-20T08:53:18;149.17;;;99.27;;
76714;SDS011;65644;44.990;20.288;2023-12-20T08:55:44;142.90;;;100.87;;
76714;SDS011;65644;44.990;20.288;2023-12-20T08:58:11;153.37;;;103.77;;
76714;SDS011;65644;44.990;20.288;2023-12-20T09:00:37;155.60;;;105.87;;
76714;SDS011;65644;44.990;20.288;2023-12-20T09:03:04;148.27;;;103.77;;
76714;SDS011;65644;44.990;20.288;2023-12-20T09:05:30;142.87;;;100.13;;
76714;SDS011;65644;44.990;20.288;2023-12-20T09:07:56;132.83;;;94.33;;
76714;SDS011;65644;44.990;20.288;2023-12-20T09:10:22;134.87;;;96.17;;
76714;SDS011;65644;44.990;20.288;2023-12-20T09:12:49;141.57;;;98.40;;
76714;SDS011;65644;44.990;20.288;2023-12-20T09:15:15;151.70;;;106.03;;
76714;SDS011;65644;44.990;20.288;2023-12-20T09:17:41;178.23;;;128.80;;
76714;SDS011;65644;44.990;20.288;2023-12-20T09:20:08;162.73;;;122.20;;
76714;SDS011;65644;44.990;20.288;2023-12-20T09:22:35;152.07;;;107.97;;
76714;SDS011;65644;44.990;20.288;2023-12-20T09:25:03;153.40;;;105.97;;
76714;SDS011;65644;44.990;20.288;2023-12-20T09:27:29;150.93;;;102.97;;
76714;SDS011;65644;44.990;20.288;2023-12-20T09:29:55;217.13;;;138.60;;
76714;SDS011;65644;44.990;20.288;2023-12-20T09:32:21;190.97;;;125.63;;
76714;SDS011;65644;44.990;20.288;2023-12-20T09:34:47;226.17;;;148.63;;
76714;SDS011;65644;44.990;20.288;2023-12-20T09:37:13;164.77;;;112.67;;
76714;SDS011;65644;44.990;20.288;2023-12-20T09:39:40;157.30;;;112.43;;
76714;SDS011;65644;44.990;20.288;2023-12-20T09:42:06;166.27;;;111.87;;
76714;SDS011;65644;44.990;20.288;2023-12-20T09:44:33;167.73;;;115.47;;
76714;SDS011;65644;44.990;20.288;2023-12-20T09:47:02;160.53;;;111.93;;
76714;SDS011;65644;44.990;20.288;2023-12-20T09:49:29;155.07;;;110.00;;
76714;SDS011;65644;44.990;20.288;2023-12-20T09:51:56;161.10;;;112.27;;
76714;SDS011;65644;44.990;20.288;2023-12-20T09:54:22;146.03;;;103.03;;
76714;SDS011;65644;44.990;20.288;2023-12-20T09:56:49;149.03;;;105.10;;
76714;SDS011;65644;44.990;20.288;2023-12-20T09:59:15;150.33;;;107.37;;
76714;SDS011;65644;44.990;20.288;2023-12-20T10:01:41;161.00;;;109.57;;
76714;SDS011;65644;44.990;20.288;2023-12-20T10:04:08;162.83;;;114.80;;
76714;SDS011;65644;44.990;20.288;2023-12-20T10:06:43;163.73;;;111.53;;
76714;SDS011;65644;44.990;20.288;2023-12-20T10:09:11;152.83;;;108.63;;
76714;SDS011;65644;44.990;20.288;2023-12-20T10:11:38;169.53;;;119.20;;
76714;SDS011;65644;44.990;20.288;2023-12-20T10:14:04;162.73;;;114.53;;
76714;SDS011;65644;44.990;20.288;2023-12-20T10:16:31;153.27;;;101.50;;
76714;SDS011;65644;44.990;20.288;2023-12-20T10:18:58;162.07;;;106.77;;
76714;SDS011;65644;44.990;20.288;2023-12-20T10:21:24;161.43;;;110.40;;
76714;SDS011;65644;44.990;20.288;2023-12-20T10:23:56;160.07;;;110.07;;
76714;SDS011;65644;44.990;20.288;2023-12-20T10:26:23;175.10;;;109.43;;
76714;SDS011;65644;44.990;20.288;2023-12-20T10:28:50;157.47;;;108.70;;
76714;SDS011;65644;44.990;20.288;2023-12-20T10:31:32;168.40;;;109.00;;
76714;SDS011;65644;44.990;20.288;2023-12-20T10:33:59;156.37;;;107.87;;
76714;SDS011;65644;44.990;20.288;2023-12-20T10:36:25;156.77;;;109.77;;
76714;SDS011;65644;44.990;20.288;2023-12-20T10:38:52;149.83;;;105.33;;
76714;SDS011;65644;44.990;20.288;2023-12-20T10:41:28;149.00;;;101.43;;
76714;SDS011;65644;44.990;20.288;2023-12-20T10:44:02;140.07;;;97.03;;
76714;SDS011;65644;44.990;20.288;2023-12-20T10:46:28;136.37;;;97.20;;
76714;SDS011;65644;44.990;20.288;2023-12-20T10:48:55;132.57;;;96.40;;
76714;SDS011;65644;44.990;20.288;2023-12-20T10:51:21;142.80;;;98.27;;
76714;SDS011;65644;44.990;20.288;2023-12-20T10:53:49;145.40;;;101.13;;
76714;SDS011;65644;44.990;20.288;2023-12-20T10:56:16;137.30;;;99.00;;
76714;SDS011;65644;44.990;20.288;2023-12-20T10:58:49;136.63;;;97.17;;
76714;SDS011;65644;44.990;20.288;2023-12-20T11:01:16;149.93;;;96.27;;
76714;SDS011;65644;44.990;20.288;2023-12-20T11:03:52;151.80;;;94.07;;
76714;SDS011;65644;44.990;20.288;2023-12-20T11:08:47;132.50;;;94.87;;
76714;SDS011;65644;44.990;20.288;2023-12-20T11:13:41;127.97;;;92.88;;
76714;SDS011;65644;44.990;20.288;2023-12-20T11:16:09;134.27;;;94.10;;
76714;SDS011;65644;44.990;20.288;2023-12-20T11:18:35;144.77;;;104.50;;
76714;SDS011;65644;44.990;20.288;2023-12-20T11:21:02;144.75;;;103.60;;
76714;SDS011;65644;44.990;20.288;2023-12-20T11:23:30;147.45;;;104.38;;
76714;SDS011;65644;44.990;20.288;2023-12-20T11:25:58;145.27;;;100.47;;
76714;SDS011;65644;44.990;20.288;2023-12-20T11:28:25;131.70;;;89.35;;
76714;SDS011;65644;44.990;20.288;2023-12-20T11:30:52;125.57;;;87.63;;
76714;SDS011;65644;44.990;20.288;2023-12-20T11:33:25;119.03;;;84.68;;
76714;SDS011;65644;44.990;20.288;2023-12-20T11:35:55;115.72;;;83.72;;
76714;SDS011;65644;44.990;20.288;2023-12-20T11:38:21;119.28;;;82.97;;
76714;SDS011;65644;44.990;20.288;2023-12-20T11:40:48;117.20;;;84.53;;
76714;SDS011;65644;44.990;20.288;2023-12-20T11:43:32;126.68;;;87.68;;
76714;SDS011;65644;44.990;20.288;2023-12-20T11:46:05;120.05;;;86.05;;
76714;SDS011;65644;44.990;20.288;2023-12-20T11:48:31;130.20;;;91.97;;
76714;SDS011;65644;44.990;20.288;2023-12-20T11:50:58;123.28;;;87.53;;
76714;SDS011;65644;44.990;20.288;2023-12-20T11:53:24;117.93;;;84.90;;
76714;SDS011;65644;44.990;20.288;2023-12-20T11:55:50;134.98;;;92.93;;
76714;SDS011;65644;44.990;20.288;2023-12-20T11:58:16;122.97;;;86.50;;
76714;SDS011;65644;44.990;20.288;2023-12-20T12:00:42;120.47;;;90.35;;
76714;SDS011;65644;44.990;20.288;2023-12-20T12:03:09;107.57;;;81.72;;
76714;SDS011;65644;44.990;20.288;2023-12-20T12:05:35;126.03;;;90.10;;
76714;SDS011;65644;44.990;20.288;2023-12-20T12:08:02;130.20;;;93.18;;
76714;SDS011;65644;44.990;20.288;2023-12-20T12:10:28;124.63;;;92.03;;
76714;SDS011;65644;44.990;20.288;2023-12-20T12:12:55;128.82;;;92.57;;
76714;SDS011;65644;44.990;20.288;2023-12-20T12:15:21;119.53;;;88.53;;
76714;SDS011;65644;44.990;20.288;2023-12-20T12:17:54;141.65;;;94.65;;
76714;SDS011;65644;44.990;20.288;2023-12-20T12:20:21;136.68;;;97.85;;
76714;SDS011;65644;44.990;20.288;2023-12-20T12:23:03;135.38;;;96.07;;
76714;SDS011;65644;44.990;20.288;2023-12-20T12:25:30;123.70;;;93.15;;
76714;SDS011;65644;44.990;20.288;2023-12-20T12:27:57;140.38;;;96.35;;
76714;SDS011;65644;44.990;20.288;2023-12-20T12:30:24;128.82;;;93.00;;
76714;SDS011;65644;44.990;20.288;2023-12-20T12:32:50;122.30;;;89.00;;
76714;SDS011;65644;44.990;20.288;2023-12-20T12:35:17;122.00;;;90.72;;
76714;SDS011;65644;44.990;20.288;2023-12-20T12:37:43;120.97;;;86.78;;
76714;SDS011;65644;44.990;20.288;2023-12-20T12:40:10;118.72;;;85.68;;
76714;SDS011;65644;44.990;20.288;2023-12-20T12:42:39;124.75;;;85.85;;
76714;SDS011;65644;44.990;20.288;2023-12-20T12:45:06;137.77;;;91.85;;
76714;SDS011;65644;44.990;20.288;2023-12-20T12:47:32;147.55;;;100.60;;
76714;SDS011;65644;44.990;20.288;2023-12-20T12:49:58;141.48;;;89.88;;
76714;SDS011;65644;44.990;20.288;2023-12-20T12:52:24;121.30;;;89.72;;
76714;SDS011;65644;44.990;20.288;2023-12-20T12:54:51;137.35;;;96.22;;
76714;SDS011;65644;44.990;20.288;2023-12-20T12:57:17;144.02;;;94.72;;
76714;SDS011;65644;44.990;20.288;2023-12-20T12:59:44;144.68;;;97.47;;
76714;SDS011;65644;44.990;20.288;2023-12-20T13:02:13;125.10;;;91.15;;
76714;SDS011;65644;44.990;20.288;2023-12-20T13:04:40;133.18;;;93.65;;
76714;SDS011;65644;44.990;20.288;2023-12-20T13:07:06;125.47;;;92.85;;
76714;SDS011;65644;44.990;20.288;2023-12-20T13:09:33;129.88;;;96.15;;
76714;SDS011;65644;44.990;20.288;2023-12-20T13:11:59;133.35;;;95.68;;
76714;SDS011;65644;44.990;20.288;2023-12-20T13:14:28;135.45;;;97.60;;
76714;SDS011;65644;44.990;20.288;2023-12-20T13:16:54;133.85;;;92.00;;
76714;SDS011;65644;44.990;20.288;2023-12-20T13:19:21;121.82;;;86.75;;
76714;SDS011;65644;44.990;20.288;2023-12-20T13:21:47;108.15;;;80.85;;
76714;SDS011;65644;44.990;20.288;2023-12-20T13:24:13;111.13;;;79.57;;
76714;SDS011;65644;44.990;20.288;2023-12-20T13:26:39;110.20;;;78.68;;
76714;SDS011;65644;44.990;20.288;2023-12-20T13:29:06;92.60;;;64.75;;
76714;SDS011;65644;44.990;20.288;2023-12-20T13:31:32;92.22;;;63.90;;
76714;SDS011;65644;44.990;20.288;2023-12-20T13:33:58;82.72;;;61.38;;
76714;SDS011;65644;44.990;20.288;2023-12-20T13:36:25;84.15;;;61.72;;
76714;SDS011;65644;44.990;20.288;2023-12-20T13:38:51;89.75;;;64.78;;
76714;SDS011;65644;44.990;20.288;2023-12-20T13:41:18;88.88;;;64.55;;
76714;SDS011;65644;44.990;20.288;2023-12-20T13:43:44;104.25;;;65.82;;
76714;SDS011;65644;44.990;20.288;2023-12-20T13:46:10;86.78;;;63.95;;
76714;SDS011;65644;44.990;20.288;2023-12-20T13:48:36;91.55;;;66.22;;
76714;SDS011;65644;44.990;20.288;2023-12-20T13:51:03;98.32;;;67.47;;
76714;SDS011;65644;44.990;20.288;2023-12-20T13:53:29;88.35;;;64.47;;
76714;SDS011;65644;44.990;20.288;2023-12-20T13:55:55;101.65;;;69.35;;
76714;SDS011;65644;44.990;20.288;2023-12-20T13:58:22;93.32;;;69.45;;
76714;SDS011;65644;44.990;20.288;2023-12-20T14:00:48;93.40;;;67.82;;
76714;SDS011;65644;44.990;20.288;2023-12-20T14:03:15;99.45;;;69.20;;